Details From DBBB - CADJEHOUN
To DXXX - GNASSINGBE EYADEMA INTL
Flight Number -
Tags generated
Created
Modified
Stats Distance 69 nm / 127 km
Max Altitude 300 ft / 91 m
Waypoints 3
Social Downloads 1
Likes 0
Share VATSIM

Download

Looking for another format? Having issues loading an existing format? Contact us
Advertisement - Login to hide

Notes

Basic altitude profile: - Ascent Rate: 2500ft/min - Ascent Speed: 250kts - Cruise Altitude: 35000ft - Cruise Speed: 470kts - Descent Rate: 1800ft/min - Descent Speed: 250kts Options: - Use NATs: yes - Use PACOTS: yes - Use low airways: no - Use high airways: yes

Route

DBBB LM DXXX

ID Type Via Altitude Latitude Longitude Leg Dist Tot Dist Heading (true) Name
O DBBB APT - 0 ft / 0 m 6.35723˚ 2.38435˚ - 0 nm - CADJEHOUN
LM VOR - 300 ft / 91 m 6.18408˚ 1.26878˚ 67 nm 67 nm 261° / 261° LOME VOR-DME
O DXXX APT - 0 ft / 0 m 6.16574˚ 1.25414˚ 1 nm 68 nm 218° / 218° GNASSINGBE EYADEMA INTL

Altitude Profile

Advertisement - Login to hide

DBBB

Details ICAO DBBB (COO)
Name CADJEHOUN
Region Benin
Timezone Africa/Porto-Novo (UTC+1.0)
Stats Elevation 19 ft / 6 m (AMSL)
Location 6.357227° 2.384353°
Runways 1
Magnetic Variation 2.521° W

METAR

DBBB 151000Z 27006KT 230V310 7000 SCT012 31/25 Q1012 NOSIG

Decode

TAF

TAF DBBB 150500Z 1506/1612 22010KT 4000 HZ NSC TEMPO 1506/1509 VRB02KT 2000 BR BECMG 1515/1517 6000 NSW BKN012

Decode

Departure Runways

ID Width Length Bearing (true) Bearing (mag) Surface Threshold Offset Overrun Length
06 148 ft / 45 m 7,887 ft / 2,404 m 52.94° 55.46° Asphalt 125 ft / 38 m 199 ft / 61 m
24 148 ft / 45 m 7,887 ft / 2,404 m 232.94° 235.46° Asphalt 0 ft / 0 m 416 ft / 127 m

DXXX

Details ICAO DXXX (LFW)
Name GNASSINGBE EYADEMA INTL
Region Togolese Republic
Timezone Africa/Lome (UTC+0.0)
Stats Elevation 72 ft / 22 m (AMSL)
Location 6.165736° 1.254142°
Runways 1
Magnetic Variation 2.874° W

METAR

DXXX 151000Z 27006KT 220V330 8000 FEW014 31/24 Q1012 NOSIG

Decode

TAF

TAF DXXX 150500Z 1506/1612 26005KT 7000 NSC TEMPO 1506/1508 3500 BR BECMG 1509/1511 20010KT BECMG 1522/1524 26005KT

Decode

Destination Runways

ID Width Length Bearing (true) Bearing (mag) Surface Threshold Offset Overrun Length
04 148 ft / 45 m 9,878 ft / 3,011 m 38.40° 41.27° Asphalt 0 ft / 0 m 197 ft / 60 m
22 148 ft / 45 m 9,878 ft / 3,011 m 218.40° 221.27° Asphalt 0 ft / 0 m 197 ft / 60 m

Approach Navaids

Runway Type Ident Frequency Range Bearing (true) Bearing (mag) Slope Elevation
22 Localiser LO 110.10 MHz 18 nm / 33 km 218.43° 221.30° - 72 ft / 22 m (AMSL)
22 Glidescope LO 110.10 MHz 15 nm / 28 km 223.00° 225.87° 3.00° 72 ft / 22 m (AMSL)

Popular Alternatives